Time;durP1;ratioP1;P1;durP2;ratioP2;P2;SDS_P1;SDS_P2;PMS_P1;PMS_P2;Temp;Humidity;BMP_temperature;BMP_pressure;BME280_temperature;BME280_humidity;BME280_pressure;Samples;Min_cycle;Max_cycle;Signal;HPM_P1;HPM_P2
2022/09/18 00:01:49;;;;;;;8.40;2.10;;;;;;;10.53;100.00;101487.56;5263193;28;20025;-68
2022/09/18 00:04:20;;;;;;;9.57;2.63;;;;;;;10.54;100.00;101484.06;5262707;28;20436;-69
2022/09/18 00:06:52;;;;;;;8.80;2.30;;;;;;;10.51;100.00;101479.72;5263327;28;20147;-70
2022/09/18 00:09:23;;;;;;;9.23;2.90;;;;;;;10.47;100.00;101484.94;5263078;28;20048;-69
2022/09/18 00:11:55;;;;;;;9.67;3.70;;;;;;;10.41;100.00;101485.81;5263149;28;20098;-69
2022/09/18 00:14:26;;;;;;;8.30;2.77;;;;;;;10.35;100.00;101488.41;5262293;28;20037;-68
2022/09/18 00:16:58;;;;;;;7.47;2.93;;;;;;;10.31;100.00;101478.84;5261709;28;20032;-68
2022/09/18 00:19:29;;;;;;;10.57;3.57;;;;;;;10.32;100.00;101478.88;5262541;28;20075;-68
2022/09/18 00:22:01;;;;;;;10.90;2.90;;;;;;;10.32;100.00;101480.56;5262844;28;20029;-68
2022/09/18 00:24:32;;;;;;;11.30;3.03;;;;;;;10.38;100.00;101476.28;5262713;28;20039;-69
2022/09/18 00:27:04;;;;;;;11.37;2.57;;;;;;;10.31;100.00;101473.63;5261285;28;20032;-69
2022/09/18 00:29:35;;;;;;;11.60;2.93;;;;;;;10.42;100.00;101471.03;5263156;28;20041;-68
2022/09/18 00:32:06;;;;;;;11.23;3.20;;;;;;;10.34;100.00;101474.53;5262698;28;20048;-68
2022/09/18 00:34:40;;;;;;;6.37;2.70;;;;;;;10.35;100.00;101467.56;5261472;28;20447;-67
2022/09/18 00:37:11;;;;;;;11.02;3.08;;;;;;;10.33;100.00;101472.78;5261679;28;20495;-69
2022/09/18 00:39:42;;;;;;;5.33;2.73;;;;;;;10.34;100.00;101468.44;5261374;28;20037;-69
2022/09/18 00:42:17;;;;;;;8.23;3.10;;;;;;;10.33;100.00;101470.16;5261239;28;20071;-68
2022/09/18 00:44:49;;;;;;;7.78;2.67;;;;;;;10.35;100.00;101477.97;5260508;28;20036;-69
2022/09/18 00:47:47;;;;;;;9.00;2.80;;;;;;;10.35;100.00;101486.69;5262144;28;20044;-70
2022/09/18 00:50:22;;;;;;;10.32;3.70;;;;;;;10.33;100.00;101479.72;5261906;28;20032;-69
2022/09/18 00:52:58;;;;;;;6.70;2.67;;;;;;;10.37;100.00;101471.91;5262365;28;20029;-69
2022/09/18 00:55:32;;;;;;;13.73;3.67;;;;;;;10.34;100.00;101474.53;5262226;28;20021;-70
2022/09/18 00:58:04;;;;;;;9.05;3.28;;;;;;;10.36;100.00;101471.91;5262320;28;20025;-69
2022/09/18 01:00:36;;;;;;;8.60;3.50;;;;;;;10.39;100.00;101471.91;5262158;28;20075;-68
2022/09/18 01:03:07;;;;;;;11.07;3.93;;;;;;;10.34;100.00;101468.44;5260742;28;20045;-67
2022/09/18 01:06:01;;;;;;;9.03;2.80;;;;;;;10.38;100.00;101475.38;5262590;28;20044;-69
2022/09/18 01:08:53;;;;;;;7.28;2.55;;;;;;;10.37;100.00;101479.72;5262680;28;20037;-68
2022/09/18 01:11:41;;;;;;;11.00;3.45;;;;;;;10.36;100.00;101477.97;5264077;28;20037;-68
2022/09/18 01:14:39;;;;;;;7.05;2.63;;;;;;;10.38;100.00;101486.69;5263048;28;20384;-68
2022/09/18 01:17:34;;;;;;;8.90;3.28;;;;;;;10.38;100.00;101486.69;5262156;28;20121;-69
2022/09/18 01:20:44;;;;;;;12.10;3.35;;;;;;;10.37;100.00;101481.47;5262128;28;20552;-69
2022/09/18 01:23:34;;;;;;;9.38;3.13;;;;;;;10.41;100.00;101485.81;5262105;28;20033;-69
2022/09/18 01:26:31;;;;;;;6.28;3.80;;;;;;;10.46;100.00;101477.97;5261453;28;20029;-68
2022/09/18 01:29:44;;;;;;;7.05;2.97;;;;;;;10.43;100.00;101484.06;5238047;28;20477;-69
2022/09/18 01:32:28;;;;;;;8.98;3.47;;;;;;;10.41;100.00;101480.59;5261851;28;20037;-69
2022/09/18 01:35:05;;;;;;;6.50;2.83;;;;;;;10.46;100.00;101478.84;5261271;28;20021;-70
2022/09/18 01:37:42;;;;;;;8.48;2.80;;;;;;;10.42;100.00;101478.84;5261921;28;20170;-69
2022/09/18 01:40:13;;;;;;;7.05;2.90;;;;;;;10.44;100.00;101472.78;5262100;28;20096;-68
2022/09/18 01:42:48;;;;;;;10.57;2.73;;;;;;;10.47;100.00;101475.38;5261506;28;20116;-69
2022/09/18 01:45:25;;;;;;;8.63;3.55;;;;;;;10.45;100.00;101476.25;5261390;28;20106;-69
2022/09/18 01:48:02;;;;;;;8.65;3.00;;;;;;;10.41;100.00;101464.94;5261714;28;20053;-69
2022/09/18 01:50:39;;;;;;;5.47;2.80;;;;;;;10.37;100.00;101471.06;5262209;28;20021;-68
2022/09/18 01:53:20;;;;;;;6.63;3.33;;;;;;;10.34;100.00;101465.84;5261507;28;20025;-68
2022/09/18 01:55:58;;;;;;;8.00;3.08;;;;;;;10.33;100.00;101461.50;5261436;28;20048;-68
2022/09/18 01:58:32;;;;;;;9.45;4.00;;;;;;;10.28;100.00;101461.47;5260547;28;20036;-68
2022/09/18 02:01:12;;;;;;;7.90;3.70;;;;;;;10.26;100.00;101458.00;5261503;28;20128;-68
2022/09/18 02:04:07;;;;;;;10.80;3.53;;;;;;;10.23;100.00;101451.03;5261310;28;20116;-68
2022/09/18 02:06:48;;;;;;;11.43;3.38;;;;;;;10.23;100.00;101444.97;5261199;28;20033;-69
2022/09/18 02:09:19;;;;;;;12.43;3.88;;;;;;;10.22;100.00;101457.13;5261246;28;20053;-70
2022/09/18 02:11:55;;;;;;;9.53;3.67;;;;;;;10.24;100.00;101457.13;5260215;28;20041;-68
2022/09/18 02:14:36;;;;;;;8.52;4.20;;;;;;;10.32;100.00;101459.72;5261202;28;20021;-69
2022/09/18 02:17:16;;;;;;;8.23;4.43;;;;;;;10.34;100.00;101453.66;5261433;28;20125;-69
2022/09/18 02:19:56;;;;;;;10.32;3.90;;;;;;;10.33;100.00;101451.91;5261424;28;20179;-69
2022/09/18 02:22:32;;;;;;;9.70;3.95;;;;;;;10.28;100.00;101452.78;5261221;28;20071;-69
2022/09/18 02:25:06;;;;;;;8.63;3.28;;;;;;;10.28;100.00;101452.78;5261246;28;20029;-68
2022/09/18 02:27:40;;;;;;;9.73;3.53;;;;;;;10.30;100.00;101444.06;5261078;28;20037;-68
2022/09/18 02:30:12;;;;;;;11.25;3.42;;;;;;;10.30;100.00;101438.00;5260828;28;20109;-68
2022/09/18 02:32:44;;;;;;;8.10;3.38;;;;;;;10.29;100.00;101439.75;5259846;28;20083;-68
2022/09/18 02:35:15;;;;;;;11.90;3.87;;;;;;;10.33;100.00;101431.06;5260938;28;20062;-69
2022/09/18 02:37:58;;;;;;;11.10;2.93;;;;;;;10.32;100.00;101434.56;5263097;28;20614;-68
2022/09/18 02:40:42;;;;;;;11.82;3.85;;;;;;;10.33;100.00;101436.28;5265238;28;20100;-69
2022/09/18 02:43:44;;;;;;;9.85;3.20;;;;;;;10.33;100.00;101432.81;5264724;28;20044;-68
2022/09/18 02:46:36;;;;;;;7.72;3.30;;;;;;;10.35;100.00;101433.69;5264789;28;20036;-69
2022/09/18 02:49:19;;;;;;;10.32;3.13;;;;;;;10.37;100.00;101432.81;5263207;28;20067;-69
2022/09/18 02:52:05;;;;;;;12.85;3.33;;;;;;;10.38;100.00;101445.00;5264647;28;20491;-67
2022/09/18 02:54:47;;;;;;;11.45;4.22;;;;;;;10.38;100.00;101439.78;5264826;28;20033;-69
2022/09/18 02:57:44;;;;;;;8.57;3.15;;;;;;;10.39;100.00;101428.47;5264825;28;20037;-68
2022/09/18 03:00:17;;;;;;;13.32;3.42;;;;;;;10.40;100.00;101424.16;5264450;28;20029;-68
2022/09/18 03:02:49;;;;;;;14.90;3.50;;;;;;;10.39;100.00;101425.00;5264573;28;20468;-68
2022/09/18 03:05:20;;;;;;;10.30;2.88;;;;;;;10.44;100.00;101427.59;5263986;28;20071;-69
2022/09/18 03:07:53;;;;;;;10.33;3.00;;;;;;;10.45;100.00;101431.94;5264576;28;20376;-68
2022/09/18 03:10:25;;;;;;;9.50;3.17;;;;;;;10.43;100.00;101423.25;5264336;28;20102;-69
2022/09/18 03:12:56;;;;;;;9.63;3.47;;;;;;;10.43;100.00;101424.09;5264394;28;20165;-69
2022/09/18 03:15:27;;;;;;;10.63;3.43;;;;;;;10.42;100.00;101418.91;5264634;28;20032;-68
2022/09/18 03:17:59;;;;;;;9.97;3.40;;;;;;;10.39;100.00;101415.44;5264394;28;20115;-69
2022/09/18 03:20:30;;;;;;;10.50;3.80;;;;;;;10.38;100.00;101425.84;5264590;28;20047;-68
2022/09/18 03:23:02;;;;;;;12.60;2.90;;;;;;;10.42;100.00;101416.28;5264260;28;20048;-69
2022/09/18 03:25:34;;;;;;;10.67;3.30;;;;;;;10.43;100.00;101416.28;5264131;28;20108;-69
2022/09/18 03:28:05;;;;;;;13.70;3.10;;;;;;;10.37;100.00;101424.16;5263974;28;20091;-70
2022/09/18 03:30:37;;;;;;;15.73;3.97;;;;;;;10.38;100.00;101416.31;5264128;28;20436;-69
2022/09/18 03:33:08;;;;;;;10.80;3.27;;;;;;;10.36;100.00;101420.66;5263565;28;20043;-70
2022/09/18 03:35:41;;;;;;;10.87;3.40;;;;;;;10.37;100.00;101417.19;5263839;28;20033;-69
2022/09/18 03:38:13;;;;;;;6.05;2.28;;;;;;;10.37;100.00;101413.72;5263849;28;20035;-69
2022/09/18 03:40:45;;;;;;;15.10;3.43;;;;;;;10.35;100.00;101416.31;5263886;28;20029;-68
2022/09/18 03:43:16;;;;;;;11.05;2.63;;;;;;;10.35;100.00;101416.31;5263883;28;20388;-70
2022/09/18 03:45:47;;;;;;;10.30;2.87;;;;;;;10.34;100.00;101414.59;5264177;28;20108;-68
2022/09/18 03:48:19;;;;;;;8.80;2.97;;;;;;;10.34;100.00;101408.50;5263709;28;20075;-69
2022/09/18 03:50:50;;;;;;;12.07;2.60;;;;;;;10.32;100.00;101408.50;5264063;28;20108;-69
2022/09/18 03:53:22;;;;;;;8.90;2.90;;;;;;;10.32;100.00;101404.97;5263919;28;20047;-68
2022/09/18 03:55:53;;;;;;;8.90;2.77;;;;;;;10.31;100.00;101398.91;5263918;28;20449;-69
2022/09/18 03:58:24;;;;;;;9.90;2.43;;;;;;;10.29;100.00;101400.66;5263696;28;20040;-69
2022/09/18 04:00:56;;;;;;;11.27;3.03;;;;;;;10.29;100.00;101402.38;5262424;28;20349;-69
2022/09/18 04:03:27;;;;;;;11.20;2.80;;;;;;;10.28;100.00;101395.44;5263260;28;20417;-68
2022/09/18 04:05:59;;;;;;;10.67;3.53;;;;;;;10.26;100.00;101392.84;5263418;28;20032;-70
2022/09/18 04:08:30;;;;;;;9.03;3.10;;;;;;;10.28;100.00;101391.09;5263226;28;20106;-70
2022/09/18 04:11:03;;;;;;;10.07;2.07;;;;;;;10.22;100.00;101384.19;5263832;28;20515;-69
2022/09/18 04:13:34;;;;;;;;;;;;;;;10.23;100.00;101393.72;5263972;28;20057;-68
2022/09/18 04:16:06;;;;;;;7.65;2.05;;;;;;;10.21;100.00;101392.84;5263508;28;20031;-69
2022/09/18 04:18:37;;;;;;;10.73;2.03;;;;;;;10.15;100.00;101392.00;5263424;28;20065;-68
2022/09/18 04:21:08;;;;;;;7.57;1.70;;;;;;;10.15;100.00;101395.47;5263363;28;20025;-69
2022/09/18 04:23:40;;;;;;;5.43;1.80;;;;;;;10.17;100.00;101398.06;5263221;28;20492;-69
2022/09/18 04:26:11;;;;;;;9.53;1.90;;;;;;;10.16;100.00;101393.75;5263430;28;20037;-69
2022/09/18 04:28:42;;;;;;;5.40;2.50;;;;;;;10.15;100.00;101392.84;5262763;28;20437;-68
2022/09/18 04:31:14;;;;;;;9.93;1.97;;;;;;;10.14;100.00;101391.16;5263398;28;20029;-69
2022/09/18 04:33:45;;;;;;;9.87;2.20;;;;;;;10.15;100.00;101392.00;5262663;28;20029;-69
2022/09/18 04:36:16;;;;;;;6.30;1.80;;;;;;;10.13;100.00;101391.16;5261887;28;20120;-69
2022/09/18 04:38:48;;;;;;;6.53;2.07;;;;;;;10.13;100.00;101404.16;5261774;28;20075;-69
2022/09/18 04:41:19;;;;;;;6.40;1.87;;;;;;;10.11;100.00;101393.75;5263069;28;20056;-69
2022/09/18 04:43:51;;;;;;;7.17;2.27;;;;;;;10.11;100.00;101405.88;5262845;28;20389;-69
2022/09/18 04:46:22;;;;;;;6.33;2.40;;;;;;;10.05;100.00;101406.78;5262760;28;20061;-68
2022/09/18 04:48:53;;;;;;;5.50;1.77;;;;;;;10.10;100.00;101396.34;5262859;28;20035;-69
2022/09/18 04:51:25;;;;;;;8.37;1.80;;;;;;;10.05;100.00;101393.75;5262858;28;20069;-71
2022/09/18 04:53:56;;;;;;;11.20;2.30;;;;;;;10.06;100.00;101399.81;5262381;28;20040;-69
2022/09/18 04:56:27;;;;;;;7.10;2.63;;;;;;;10.10;100.00;101401.56;5263173;28;20037;-70
2022/09/18 04:58:59;;;;;;;6.17;1.73;;;;;;;10.08;100.00;101404.16;5262270;28;20033;-69
2022/09/18 05:01:30;;;;;;;6.43;2.07;;;;;;;10.05;100.00;101398.97;5262629;28;20029;-70
2022/09/18 05:04:01;;;;;;;9.63;1.73;;;;;;;10.07;100.00;101402.41;5262288;28;20072;-69
2022/09/18 05:06:33;;;;;;;12.30;3.40;;;;;;;10.09;100.00;101397.22;5262136;28;20029;-70
2022/09/18 05:09:05;;;;;;;9.10;2.15;;;;;;;10.06;100.00;101390.25;5262201;28;20064;-69
2022/09/18 05:11:36;;;;;;;6.90;1.80;;;;;;;10.12;100.00;101381.59;5262770;28;20033;-69
2022/09/18 05:14:08;;;;;;;10.43;2.17;;;;;;;10.13;100.00;101378.97;5262457;28;20111;-69
2022/09/18 05:16:39;;;;;;;11.03;2.20;;;;;;;10.12;100.00;101381.59;5262333;28;20048;-68
2022/09/18 05:19:10;;;;;;;5.27;2.00;;;;;;;10.13;100.00;101384.19;5262375;28;20037;-68
2022/09/18 05:21:42;;;;;;;7.70;2.27;;;;;;;10.14;100.00;101392.84;5262192;28;20029;-68
2022/09/18 05:24:13;;;;;;;10.20;2.23;;;;;;;10.16;100.00;101398.97;5262220;28;20071;-68
2022/09/18 05:26:45;;;;;;;11.67;2.37;;;;;;;10.20;100.00;101406.75;5262215;28;20021;-68
2022/09/18 05:29:16;;;;;;;8.87;1.90;;;;;;;10.21;100.00;101403.28;5262216;28;20040;-69
2022/09/18 05:31:47;;;;;;;13.40;2.97;;;;;;;10.22;100.00;101389.38;5262116;28;20043;-68
2022/09/18 05:34:18;;;;;;;8.73;2.63;;;;;;;10.21;100.00;101400.66;5261589;28;20056;-68
2022/09/18 05:36:50;;;;;;;11.90;2.57;;;;;;;10.24;100.00;101415.44;5262049;28;20029;-68
2022/09/18 05:39:21;;;;;;;11.97;2.53;;;;;;;10.25;100.00;101421.50;5261984;28;20033;-68
2022/09/18 05:41:53;;;;;;;8.50;2.40;;;;;;;10.22;100.00;101418.06;5260763;28;20107;-68
2022/09/18 05:44:24;;;;;;;5.70;2.00;;;;;;;10.24;100.00;101418.06;5261667;28;20451;-68
2022/09/18 05:46:55;;;;;;;9.40;2.00;;;;;;;10.28;100.00;101405.88;5261989;28;20402;-68
2022/09/18 05:49:27;;;;;;;7.93;1.63;;;;;;;10.26;100.00;101402.41;5261985;28;20029;-68
2022/09/18 05:51:58;;;;;;;8.97;2.67;;;;;;;10.29;100.00;101399.78;5262395;28;20494;-69
2022/09/18 05:54:29;;;;;;;7.67;2.33;;;;;;;10.30;100.00;101402.38;5262079;28;20025;-69
2022/09/18 05:57:01;;;;;;;8.00;2.07;;;;;;;10.32;100.00;101404.97;5260357;28;20116;-68
2022/09/18 05:59:32;;;;;;;11.17;2.07;;;;;;;10.36;100.00;101405.00;5261917;28;20029;-70
2022/09/18 06:02:03;;;;;;;10.10;2.17;;;;;;;10.38;100.00;101403.28;5261932;28;20064;-68
2022/09/18 06:04:35;;;;;;;12.73;3.80;;;;;;;10.43;100.00;101395.44;5261330;28;20033;-68
2022/09/18 06:07:06;;;;;;;6.37;2.10;;;;;;;10.49;100.00;101403.25;5261787;28;20112;-69
2022/09/18 06:09:38;;;;;;;9.27;3.40;;;;;;;10.52;100.00;101405.84;5261720;28;20056;-68
2022/09/18 06:12:10;;;;;;;6.78;2.47;;;;;;;10.56;100.00;101393.66;5263231;28;20392;-69
2022/09/18 06:14:41;;;;;;;11.90;2.83;;;;;;;10.52;100.00;101389.34;5265861;28;20025;-69
2022/09/18 06:17:13;;;;;;;9.40;2.30;;;;;;;10.54;100.00;101392.81;5265759;28;20112;-68
2022/09/18 06:19:44;;;;;;;11.33;2.37;;;;;;;10.61;100.00;101401.47;5265570;28;20083;-69
2022/09/18 06:22:15;;;;;;;9.63;2.67;;;;;;;10.66;100.00;101399.72;5265780;28;20030;-69
2022/09/18 06:24:47;;;;;;;13.90;3.67;;;;;;;10.77;100.00;101395.38;5265568;28;20029;-69
2022/09/18 06:27:18;;;;;;;13.20;2.63;;;;;;;10.83;100.00;101387.50;5247541;28;20044;-69
2022/09/18 06:29:50;;;;;;;9.23;3.13;;;;;;;10.90;100.00;101401.38;5265620;28;20464;-69
2022/09/18 06:32:21;;;;;;;10.60;2.72;;;;;;;10.97;100.00;101397.00;5265483;28;20377;-69
2022/09/18 06:34:53;;;;;;;12.10;3.30;;;;;;;11.01;100.00;101394.38;5265110;28;20025;-68
2022/09/18 06:37:24;;;;;;;8.33;2.50;;;;;;;11.03;100.00;101397.84;5265472;28;20029;-67
2022/09/18 06:39:55;;;;;;;9.23;3.20;;;;;;;11.07;100.00;101380.44;5264141;28;20092;-68
2022/09/18 06:42:27;;;;;;;12.10;2.70;;;;;;;11.10;100.00;101378.66;5265356;28;20036;-69
2022/09/18 06:44:58;;;;;;;6.93;2.90;;;;;;;11.15;100.00;101376.03;5265218;28;20464;-69
2022/09/18 06:47:29;;;;;;;11.00;3.03;;;;;;;11.16;100.00;101388.22;5265231;28;20033;-68
2022/09/18 06:50:01;;;;;;;7.03;2.30;;;;;;;11.16;100.00;101388.22;5264813;28;20103;-69
2022/09/18 06:52:32;;;;;;;8.10;2.50;;;;;;;11.17;100.00;101384.72;5265235;28;20167;-69
2022/09/18 06:55:04;;;;;;;11.53;2.90;;;;;;;11.18;100.00;101386.47;5265336;28;20045;-69
2022/09/18 06:57:35;;;;;;;6.73;2.27;;;;;;;11.19;100.00;101389.91;5265059;28;20036;-69
2022/09/18 07:00:08;;;;;;;11.47;3.10;;;;;;;11.23;100.00;101384.69;5264550;28;20068;-68
2022/09/18 07:02:40;;;;;;;10.45;2.45;;;;;;;11.26;100.00;101381.19;5264833;28;20040;-67
2022/09/18 07:05:11;;;;;;;15.07;3.20;;;;;;;11.35;100.00;101380.25;5263111;28;20111;-68
2022/09/18 07:07:44;;;;;;;8.30;2.30;;;;;;;11.38;100.00;101385.47;5264521;28;20345;-69
2022/09/18 07:10:16;;;;;;;7.65;2.25;;;;;;;11.41;100.00;101382.84;5264777;28;20106;-68
2022/09/18 07:12:47;;;;;;;8.37;1.83;;;;;;;11.44;100.00;101381.06;5263510;28;20476;-69
2022/09/18 07:15:19;;;;;;;11.10;2.53;;;;;;;11.55;100.00;101381.00;5264539;28;20040;-68
2022/09/18 07:17:51;;;;;;;10.27;2.40;;;;;;;11.58;100.00;101385.34;5264686;28;20044;-69
2022/09/18 07:20:23;;;;;;;11.75;2.65;;;;;;;11.61;100.00;101386.19;5264624;28;20472;-67
2022/09/18 07:22:59;;;;;;;11.57;3.97;;;;;;;11.71;100.00;101391.34;5264126;28;20098;-68
2022/09/18 07:25:33;;;;;;;6.78;2.10;;;;;;;11.67;100.00;101374.81;5264799;28;20379;-69
2022/09/18 07:28:09;;;;;;;8.18;2.33;;;;;;;11.73;100.00;101373.91;5264275;28;20029;-68
2022/09/18 07:30:40;;;;;;;8.63;2.50;;;;;;;11.72;100.00;101366.94;5264508;28;20029;-69
2022/09/18 07:33:12;;;;;;;8.83;2.50;;;;;;;11.79;100.00;101360.81;5264220;28;20032;-69
2022/09/18 07:35:43;;;;;;;12.73;3.00;;;;;;;11.84;100.00;101359.00;5263925;28;20326;-68
2022/09/18 07:38:14;;;;;;;6.40;2.30;;;;;;;11.83;100.00;101368.59;5264106;28;20120;-69
2022/09/18 07:40:46;;;;;;;6.87;2.30;;;;;;;11.90;100.00;101365.91;5264092;28;20037;-68
2022/09/18 07:43:17;;;;;;;11.30;3.70;;;;;;;11.92;100.00;101367.66;5263621;28;20120;-68
2022/09/18 07:45:49;;;;;;;12.67;2.73;;;;;;;12.03;100.00;101371.06;5263001;28;20357;-70
2022/09/18 07:48:22;;;;;;;12.23;2.47;;;;;;;12.00;100.00;101378.91;5262808;28;20055;-70
2022/09/18 07:50:57;;;;;;;8.55;2.70;;;;;;;12.11;100.00;101370.13;5262664;28;20035;-69
2022/09/18 07:53:28;;;;;;;8.63;3.05;;;;;;;12.12;100.00;101367.47;5263970;28;20029;-69
2022/09/18 07:56:00;;;;;;;7.60;1.87;;;;;;;12.26;100.00;101367.34;5263895;28;20090;-70
2022/09/18 07:58:31;;;;;;;7.40;1.80;;;;;;;12.43;100.00;101371.50;5263566;28;20045;-69
2022/09/18 08:01:04;;;;;;;7.00;2.57;;;;;;;12.50;100.00;101373.19;5263783;28;20128;-69
2022/09/18 08:03:37;;;;;;;8.68;2.08;;;;;;;12.64;100.00;101365.16;5260223;28;20067;-70
2022/09/18 08:06:08;;;;;;;;;;;;;;;12.87;100.00;101368.38;5263821;28;20532;-69
2022/09/18 08:08:39;;;;;;;12.13;3.35;;;;;;;12.85;100.00;101364.91;5262777;28;19964;-67
2022/09/18 08:11:11;;;;;;;8.13;2.30;;;;;;;12.99;100.00;101362.09;5263392;28;20094;-68
2022/09/18 08:13:42;;;;;;;7.93;2.37;;;;;;;13.11;99.62;101348.84;5258992;28;20040;-69
2022/09/18 08:16:14;;;;;;;9.10;2.53;;;;;;;13.12;97.75;101363.69;5263134;28;20033;-69
2022/09/18 08:18:47;;;;;;;8.50;2.07;;;;;;;13.18;98.53;101362.72;5262533;28;20098;-68
2022/09/18 08:21:18;;;;;;;9.85;2.40;;;;;;;13.04;96.09;101367.28;5263256;28;20726;-68
2022/09/18 08:23:49;;;;;;;7.27;1.97;;;;;;;12.86;97.27;101363.16;5262090;28;20040;-68
2022/09/18 08:26:21;;;;;;;5.10;2.10;;;;;;;12.69;98.20;101372.09;5263054;28;20036;-67
2022/09/18 08:28:52;;;;;;;8.40;2.10;;;;;;;12.62;99.66;101367.81;5262713;28;20044;-70
2022/09/18 08:31:25;;;;;;;;;;;;;;;12.68;99.48;101378.19;5263405;28;20053;-69
2022/09/18 08:33:56;;;;;;;5.32;1.45;;;;;;;12.46;99.35;101366.25;5259502;28;20352;-73
2022/09/18 08:36:27;;;;;;;4.83;1.87;;;;;;;12.31;100.00;101377.75;5256647;28;20029;-68
2022/09/18 08:38:59;;;;;;;7.23;2.10;;;;;;;12.20;100.00;101373.50;5262422;28;20033;-69
2022/09/18 08:41:54;;;;;;;13.00;2.57;;;;;;;12.12;100.00;101379.69;5264337;28;20064;-68
2022/09/18 08:44:35;;;;;;;6.07;1.80;;;;;;;12.11;100.00;101380.59;5263492;28;20036;-69
2022/09/18 08:47:14;;;;;;;4.05;1.98;;;;;;;12.17;100.00;101378.78;5262074;28;20029;-68
2022/09/18 08:50:10;;;;;;;7.03;2.20;;;;;;;12.21;100.00;101372.63;5262812;28;20506;-69
2022/09/18 08:52:47;;;;;;;6.95;2.25;;;;;;;12.31;100.00;101373.38;5262138;28;20056;-68
2022/09/18 08:55:29;;;;;;;9.35;2.28;;;;;;;12.42;100.00;101370.66;5261448;28;20417;-69
2022/09/18 08:58:27;;;;;;;5.30;1.75;;;;;;;12.49;100.00;101377.53;5261676;28;20070;-68
2022/09/18 09:01:13;;;;;;;7.93;1.95;;;;;;;12.42;100.00;101372.41;5261328;28;20099;-69
2022/09/18 09:03:53;;;;;;;5.85;2.60;;;;;;;12.35;99.69;101376.84;5260955;28;20036;-67
2022/09/18 09:06:30;;;;;;;6.00;2.00;;;;;;;12.30;100.00;101376.00;5261886;28;20029;-69
2022/09/18 09:09:25;;;;;;;5.75;1.92;;;;;;;12.32;100.00;101376.88;5261213;28;20078;-69
2022/09/18 09:12:25;;;;;;;8.75;3.45;;;;;;;12.40;100.00;101375.06;5262124;28;20495;-68
2022/09/18 09:15:30;;;;;;;7.55;2.80;;;;;;;12.35;100.00;101380.31;5261097;28;20025;-69
2022/09/18 09:18:44;;;;;;;5.05;2.10;;;;;;;12.37;100.00;101377.69;5261144;28;20424;-69
2022/09/18 09:21:29;;;;;;;6.78;2.30;;;;;;;12.38;100.00;101380.28;5201518;28;20225;-68
2022/09/18 09:24:19;;;;;;;5.90;1.83;;;;;;;12.51;99.78;101369.69;5280129;28;20074;-68
2022/09/18 09:26:54;;;;;;;5.68;2.17;;;;;;;12.49;99.82;101384.53;5280777;28;20035;-68
2022/09/18 09:29:33;;;;;;;5.10;2.00;;;;;;;12.46;99.73;101382.84;5276172;28;20029;-69
2022/09/18 09:32:29;;;;;;;6.05;2.40;;;;;;;12.34;100.00;101381.19;5262048;28;20023;-68
2022/09/18 09:35:30;;;;;;;6.75;2.22;;;;;;;12.25;100.00;101383.91;5259349;28;20065;-70
2022/09/18 09:38:14;;;;;;;14.30;2.80;;;;;;;12.18;100.00;101382.25;5260047;28;20037;-70
2022/09/18 09:40:49;;;;;;;9.20;3.33;;;;;;;12.08;100.00;101391.91;5261737;28;20021;-70
2022/09/18 09:43:30;;;;;;;11.05;2.80;;;;;;;12.02;100.00;101378.91;5260988;28;20353;-69
2022/09/18 09:46:10;;;;;;;11.18;3.47;;;;;;;12.03;100.00;101385.88;5264262;28;20021;-71
2022/09/18 09:49:00;;;;;;;8.00;2.90;;;;;;;12.16;100.00;101382.25;5265012;28;20040;-70
2022/09/18 09:51:56;;;;;;;11.82;4.53;;;;;;;12.30;100.00;101391.69;5265478;28;20785;-69
2022/09/18 09:54:27;;;;;;;7.38;2.95;;;;;;;12.46;100.00;101375.00;5265646;28;20545;-69
2022/09/18 09:57:15;;;;;;;4.97;2.40;;;;;;;12.51;100.00;101372.28;5264068;28;20036;-69
2022/09/18 09:59:58;;;;;;;6.63;2.28;;;;;;;12.63;100.00;101363.47;5262830;28;20025;-68
2022/09/18 10:03:07;;;;;;;11.07;4.13;;;;;;;12.77;100.00;101351.94;5263858;28;20020;-69
2022/09/18 10:06:12;;;;;;;6.18;2.65;;;;;;;12.88;100.00;101351.81;5256810;28;20380;-70
2022/09/18 10:08:54;;;;;;;6.03;2.47;;;;;;;13.13;100.00;101339.22;5257565;28;20421;-70
2022/09/18 10:11:25;;;;;;;6.03;2.42;;;;;;;13.18;100.00;101343.53;5265736;28;20187;-71
2022/09/18 10:14:21;;;;;;;9.47;2.63;;;;;;;13.28;100.00;101343.38;5264135;28;20112;-70
2022/09/18 10:16:55;;;;;;;5.50;2.47;;;;;;;13.40;100.00;101349.34;5264853;28;20028;-69
2022/09/18 10:19:39;;;;;;;11.05;3.10;;;;;;;13.51;100.00;101352.66;5265223;28;20041;-69
2022/09/18 10:22:16;;;;;;;9.55;2.65;;;;;;;13.52;99.26;101346.53;5265356;28;20033;-69
2022/09/18 10:25:04;;;;;;;8.70;2.53;;;;;;;13.64;98.78;101348.94;5264749;28;20041;-68
2022/09/18 10:27:36;;;;;;;7.03;1.80;;;;;;;13.58;97.96;101351.66;5265691;28;20035;-70
2022/09/18 10:30:12;;;;;;;7.47;2.07;;;;;;;13.75;98.49;101359.25;5263464;28;20124;-71
2022/09/18 10:32:43;;;;;;;6.82;1.70;;;;;;;13.76;96.53;101358.34;5265873;28;20029;-68
2022/09/18 10:35:30;;;;;;;6.10;1.73;;;;;;;14.00;98.89;101354.44;5279968;28;20106;-69
2022/09/18 10:38:01;;;;;;;6.30;1.88;;;;;;;14.06;97.04;101355.25;5264619;28;20147;-70
2022/09/18 10:40:38;;;;;;;5.63;1.63;;;;;;;14.01;94.91;101355.31;5261820;28;20123;-70
2022/09/18 10:43:17;;;;;;;6.95;1.70;;;;;;;13.93;93.41;101354.59;5254203;28;20530;-68
2022/09/18 10:45:54;;;;;;;4.35;1.50;;;;;;;13.78;92.00;101348.72;5255131;28;20091;-68
2022/09/18 10:48:26;;;;;;;3.78;1.60;;;;;;;13.78;91.59;101345.22;5251100;28;20040;-70
2022/09/18 10:51:00;;;;;;;7.07;1.90;;;;;;;13.97;90.61;101349.25;5251428;28;20396;-70
2022/09/18 10:53:33;;;;;;;3.33;1.08;;;;;;;14.17;92.01;101340.19;5253285;28;20030;-70
2022/09/18 10:56:15;;;;;;;3.60;1.58;;;;;;;14.31;91.79;101337.28;5264299;28;20468;-70
2022/09/18 10:58:47;;;;;;;6.93;2.08;;;;;;;14.53;92.30;101333.31;5263573;28;20111;-69
2022/09/18 11:01:24;;;;;;;4.90;1.80;;;;;;;14.42;91.54;101335.31;5264398;28;20056;-68
2022/09/18 11:04:00;;;;;;;5.20;2.15;;;;;;;14.32;92.32;101325.91;5263918;28;20489;-70
2022/09/18 11:06:36;;;;;;;6.15;2.00;;;;;;;14.31;91.84;101321.53;5263615;28;20037;-69
2022/09/18 11:09:09;;;;;;;5.18;2.20;;;;;;;14.16;91.35;101323.56;5258940;28;20422;-69
2022/09/18 11:11:50;;;;;;;4.40;1.88;;;;;;;13.85;91.64;101332.00;5262920;28;20483;-69
2022/09/18 11:14:25;;;;;;;4.95;1.98;;;;;;;13.55;94.21;101348.25;5278991;28;20090;-68
2022/09/18 11:16:59;;;;;;;4.88;2.10;;;;;;;13.36;97.06;101355.50;5262982;28;20032;-69
2022/09/18 11:19:33;;;;;;;8.68;2.30;;;;;;;13.25;99.45;101369.63;5263373;28;20029;-70
2022/09/18 11:22:25;;;;;;;6.05;2.35;;;;;;;13.02;100.00;101364.69;5263814;28;20380;-70
2022/09/18 11:25:20;;;;;;;5.32;1.63;;;;;;;12.66;99.00;101371.28;5262435;28;20029;-69
2022/09/18 11:27:57;;;;;;;8.55;2.67;;;;;;;12.34;100.00;101352.44;5262444;28;20035;-71
2022/09/18 11:30:34;;;;;;;5.10;2.13;;;;;;;12.17;100.00;101359.59;5263122;28;20028;-70
2022/09/18 11:33:15;;;;;;;5.88;1.80;;;;;;;12.18;100.00;101361.34;5262538;28;20036;-71
2022/09/18 11:35:54;;;;;;;10.55;2.70;;;;;;;12.20;100.00;101351.72;5262652;28;20021;-69
2022/09/18 11:38:26;;;;;;;7.70;2.70;;;;;;;12.29;100.00;101366.47;5261493;28;20040;-72
2022/09/18 11:41:00;;;;;;;8.52;3.55;;;;;;;12.32;100.00;101384.72;5263174;28;20043;-70
2022/09/18 11:43:37;;;;;;;5.65;2.13;;;;;;;12.12;100.00;101375.31;5262368;28;20052;-69
2022/09/18 11:46:33;;;;;;;4.20;1.95;;;;;;;12.05;100.00;101368.44;5262827;28;20068;-71
2022/09/18 11:49:10;;;;;;;6.10;1.85;;;;;;;11.95;100.00;101380.72;5262492;28;20460;-69
2022/09/18 11:51:51;;;;;;;5.22;1.65;;;;;;;11.95;100.00;101375.47;5263201;28;20029;-69
2022/09/18 11:54:38;;;;;;;3.42;1.92;;;;;;;11.94;100.00;101368.50;5262140;28;20496;-69
2022/09/18 11:57:18;;;;;;;5.03;1.70;;;;;;;12.01;100.00;101372.81;5262355;28;20029;-70
2022/09/18 11:59:57;;;;;;;6.82;1.80;;;;;;;12.18;100.00;101369.16;5261176;28;20086;-69